Weather History for Freeport, IL

Change the Weather History Date:

Sunday, May 27, 2012

  Actual Average Record
Temperature  
Mean Temperature 77 °F -  
Max Temperature 92 °F 74 °F 95 °F (1985)
Min Temperature 62 °F 50 °F 34 °F (1992)
Cooling Degree Days 12    
Growing Degree Days 27 (Base 50)    
Moisture  
Dew Point 57 °F    
Average Humidity 54    
Maximum Humidity 90    
Minimum Humidity 18    
Precipitation  
Precipitation 0.00 in - - ()
Sea Level Pressure  
Sea Level Pressure 29.90 in    
Wind  
Wind Speed 9 mph (SSE)    
Max Wind Speed 20 mph    
Max Gust Speed 26 mph    
Visibility 10 miles    
Events      
Averages and records for this station are not official NWS values.
T = Trace of Precipitation, MM = Missing Value Source: NWS Daily Summary

Daily Weather History Graph

Daily Weather History Graph

Search for Another Location

Airport:

Trip Planner

Search our weather history database for the weather conditions in past years. The results will help you decide how hot, cold, wet, or windy it might be!

Date:

Astronomy

May. 27, 2012 Rise Set
Actual Time 5:26 AM CDT 8:24 PM CDT
Civil Twilight 4:53 AM CDT 8:58 PM CDT
Nautical Twilight 4:11 AM CDT 9:40 PM CDT
Astronomical Twilight 3:21 AM CDT 10:30 PM CDT
Moon 11:36 AM CDT (5/27) 12:27 AM CDT (5/27)
Length of Visible Light 16h 04m
Length of Day
14h 57m
Waxing Crescent, 38% of the Moon is Illuminated
May 27
Waxing Crescent
May 28
First Quarter
Jun 4
Full
Jun 11
Last Quarter
Jun 19
New

Hourly Weather History & Observations

Time (CDT) Temp. Heat Index Dew Point Humidity Pressure Visibility Wind Dir Wind Speed Gust Speed Precip Events Conditions
12:15 AM 62.1 °F - 57.0 °F 84% 30.01 in 10.0 mi East 9.2 mph - N/A   Clear
12:35 AM 62.1 °F - 57.2 °F 84% 30.00 in 10.0 mi East 8.1 mph - N/A   Clear
12:55 AM 62.1 °F - 56.3 °F 81% 29.99 in 10.0 mi East 5.8 mph - N/A   Clear
1:15 AM 62.1 °F - 56.5 °F 82% 29.98 in 10.0 mi ENE 6.9 mph - N/A   Clear
1:35 AM 62.1 °F - 56.5 °F 82% 29.97 in 10.0 mi East 4.6 mph - N/A   Clear
1:55 AM 62.4 °F - 56.8 °F 82% 29.96 in 10.0 mi East 3.5 mph - N/A   Clear
2:15 AM 62.1 °F - 56.8 °F 83% 29.96 in 10.0 mi East 3.5 mph - N/A   Clear
2:35 AM 62.1 °F - 57.2 °F 84% 29.95 in 10.0 mi East 3.5 mph - N/A   Clear
2:55 AM 62.1 °F - 57.2 °F 84% 29.94 in 10.0 mi East 4.6 mph - N/A   Clear
3:15 AM 62.4 °F - 57.4 °F 84% 29.94 in 10.0 mi ESE 5.8 mph - N/A   Clear
3:35 AM 63.5 °F - 58.1 °F 83% 29.93 in 10.0 mi ESE 6.9 mph - N/A   Clear
3:55 AM 63.5 °F - 58.5 °F 84% 29.93 in 10.0 mi ESE 5.8 mph - N/A   Clear
4:15 AM 64.6 °F - 59.4 °F 83% 29.93 in 10.0 mi ESE 5.8 mph - N/A   Clear
4:35 AM 63.5 °F - 58.6 °F 84% 29.93 in 10.0 mi East 5.8 mph - N/A   Clear
4:55 AM 63.0 °F - 58.6 °F 86% 29.94 in 10.0 mi NE 4.6 mph - N/A   Clear
5:15 AM 62.1 °F - 58.6 °F 89% 29.94 in 10.0 mi NE 6.9 mph - N/A   Clear
5:35 AM 62.1 °F - 59.0 °F 90% 29.94 in 7.0 mi NE 4.6 mph - N/A   Clear
5:55 AM 62.1 °F - 59.0 °F 90% 29.95 in 7.0 mi NE 6.9 mph - N/A   Clear
6:15 AM 63.5 °F - 59.9 °F 88% 29.96 in 7.0 mi East 4.6 mph - N/A   Clear
6:35 AM 64.6 °F - 61.0 °F 88% 29.96 in 7.0 mi ESE 4.6 mph - N/A   Clear
6:55 AM 66.4 °F - 61.9 °F 85% 29.97 in 10.0 mi ESE 4.6 mph - N/A   Clear
7:15 AM 67.1 °F - 62.6 °F 85% 29.97 in 10.0 mi East 4.6 mph - N/A   Clear
7:35 AM 72.1 °F - 66.4 °F 82% 29.97 in 10.0 mi East 3.5 mph - N/A   Clear
7:55 AM 71.6 °F - 66.2 °F 83% 29.97 in 10.0 mi SSE 4.6 mph - N/A   Clear
8:15 AM 77.0 °F - 68.9 °F 76% 29.97 in 10.0 mi South 3.5 mph - N/A   Clear
8:35 AM 77.2 °F - 67.3 °F 71% 29.98 in 10.0 mi SSW 9.2 mph - N/A   Clear
8:55 AM 79.7 °F - 68.2 °F 68% 29.97 in 10.0 mi SW 8.1 mph - N/A   Clear
9:15 AM 79.9 °F - 67.8 °F 66% 29.97 in 10.0 mi SSW 6.9 mph - N/A   Clear
9:35 AM 82.4 °F 85.4 °F 68.2 °F 62% 29.96 in 10.0 mi SW 6.9 mph - N/A   Clear
9:55 AM 82.4 °F 84.8 °F 66.9 °F 59% 29.94 in 10.0 mi South 5.8 mph - N/A   Clear
10:15 AM 83.5 °F 85.3 °F 65.5 °F 54% 29.94 in 10.0 mi SSW 6.9 mph - N/A   Clear
10:35 AM 85.1 °F 86.1 °F 63.5 °F 48% 29.94 in 10.0 mi SW 8.1 mph - N/A   Clear
10:55 AM 85.5 °F 85.9 °F 61.7 °F 45% 29.94 in 10.0 mi SSW 9.2 mph - N/A   Clear
11:15 AM 86.2 °F 85.4 °F 58.6 °F 39% 29.94 in 10.0 mi SSW 9.2 mph - N/A   Clear
11:35 AM 86.7 °F 85.4 °F 56.5 °F 36% 29.94 in 10.0 mi SW 8.1 mph - N/A   Clear
11:55 AM 87.3 °F 86.3 °F 58.3 °F 37% 29.93 in 10.0 mi South 10.4 mph - N/A   Clear
12:15 PM 89.4 °F 89.2 °F 60.4 °F 38% 29.92 in 10.0 mi South 11.5 mph 16.1 mph N/A   Clear
12:35 PM 90.0 °F 88.6 °F 57.4 °F 33% 29.91 in 10.0 mi South 11.5 mph - N/A   Clear
12:55 PM 92.5 °F - 52.2 °F 25% 29.90 in 10.0 mi South 9.2 mph 17.3 mph N/A   Clear
1:15 PM 92.5 °F - 47.1 °F 21% 29.90 in 10.0 mi SSE 12.7 mph 20.7 mph N/A   Clear
1:35 PM 92.5 °F - 49.5 °F 23% 29.89 in 10.0 mi South 11.5 mph 23.0 mph N/A   Clear
1:55 PM 92.5 °F - 50.7 °F 24% 29.88 in 10.0 mi South 15.0 mph 23.0 mph N/A   Clear
2:15 PM 92.5 °F - 47.8 °F 22% 29.87 in 10.0 mi South 19.6 mph 24.2 mph N/A   Clear
2:35 PM 92.5 °F - 45.5 °F 20% 29.87 in 10.0 mi SSE 17.3 mph 24.2 mph N/A   Clear
2:55 PM 92.5 °F - 47.8 °F 22% 29.87 in 10.0 mi South 17.3 mph 24.2 mph N/A   Clear
3:15 PM 92.5 °F - 46.2 °F 20% 29.87 in 10.0 mi South 16.1 mph 25.3 mph N/A   Clear
3:35 PM 92.5 °F - 43.7 °F 18% 29.86 in 10.0 mi South 19.6 mph 25.3 mph N/A   Clear
3:55 PM 92.5 °F - 49.8 °F 23% 29.86 in 10.0 mi South 15.0 mph 26.5 mph N/A   Clear
4:15 PM 92.5 °F - 48.9 °F 22% 29.86 in 10.0 mi South 18.4 mph - N/A   Clear
4:35 PM 92.5 °F 90.2 °F 53.8 °F 27% 29.85 in 10.0 mi South 11.5 mph 24.2 mph N/A   Clear
4:55 PM 92.5 °F 90.4 °F 54.7 °F 28% 29.85 in 10.0 mi South 19.6 mph 24.2 mph N/A   Clear
5:15 PM 92.5 °F - 52.3 °F 25% 29.85 in 10.0 mi South 17.3 mph 24.2 mph N/A   Clear
5:35 PM 92.5 °F 90.2 °F 53.6 °F 27% 29.84 in 10.0 mi South 13.8 mph 26.5 mph N/A   Clear
5:55 PM 92.5 °F 90.2 °F 53.8 °F 27% 29.84 in 10.0 mi South 15.0 mph 24.2 mph N/A   Clear
6:15 PM 92.5 °F 90.4 °F 54.7 °F 28% 29.84 in 10.0 mi South 13.8 mph 19.6 mph N/A   Clear
6:35 PM 90.5 °F 88.1 °F 53.1 °F 28% 29.83 in 10.0 mi South 17.3 mph - N/A   Clear
6:55 PM 90.0 °F - 52.3 °F 28% 29.83 in 10.0 mi South 17.3 mph 24.2 mph N/A   Clear
7:15 PM 86.9 °F - 50.9 °F 29% 29.83 in 10.0 mi South 16.1 mph 19.6 mph N/A   Clear
7:35 PM 86.2 °F 84.5 °F 54.7 °F 34% 29.83 in 10.0 mi South 17.3 mph 21.9 mph N/A   Clear
7:55 PM 85.1 °F - 52.5 °F 32% 29.83 in 10.0 mi SSE 12.7 mph 21.9 mph N/A   Clear
8:15 PM 83.5 °F 82.1 °F 53.1 °F 35% 29.83 in 10.0 mi South 12.7 mph - N/A   Clear
8:35 PM 82.4 °F 81.4 °F 53.6 °F 37% 29.83 in 10.0 mi South 11.5 mph - N/A   Clear
8:55 PM 79.7 °F - 53.4 °F 40% 29.83 in 10.0 mi South 9.2 mph - N/A   Clear
9:15 PM 79.7 °F - 54.0 °F 41% 29.83 in 10.0 mi South 9.2 mph - N/A   Clear
9:35 PM 79.7 °F - 54.5 °F 42% 29.83 in 10.0 mi South 11.5 mph - N/A   Clear
9:55 PM 79.7 °F - 55.6 °F 43% 29.82 in 10.0 mi South 13.8 mph - N/A   Clear
10:15 PM 77.2 °F - 55.4 °F 47% 29.82 in 10.0 mi South 11.5 mph - N/A   Clear
10:35 PM 77.4 °F - 56.7 °F 49% 29.82 in 10.0 mi South 12.7 mph - N/A   Clear
10:55 PM 77.2 °F - 57.7 °F 51% 29.82 in 10.0 mi South 11.5 mph - N/A   Clear
11:15 PM 77.2 °F - 58.5 °F 52% 29.82 in 10.0 mi SSE 11.5 mph 16.1 mph N/A   Clear
11:35 PM 77.2 °F - 59.0 °F 53% 29.81 in 10.0 mi South 12.7 mph 18.4 mph N/A   Clear
11:55 PM 77.2 °F - 58.5 °F 52% 29.81 in 10.0 mi South 13.8 mph 19.6 mph N/A   Clear